Time;durP1;ratioP1;P1;durP2;ratioP2;P2;SDS_P1;SDS_P2;PMS_P1;PMS_P2;Temp;Humidity;BMP_temperature;BMP_pressure;BME280_temperature;BME280_humidity;BME280_pressure;Samples;Min_cycle;Max_cycle;Signal;HPM_P1;HPM_P2
2024/03/17 00:02:14;;;;;;;13.47;2.20;;;4.40;99.90;;;;;;5060032;28;20195;-52
2024/03/17 00:04:40;;;;;;;8.20;1.80;;;4.40;99.90;;;;;;5027764;28;20250;-48
2024/03/17 00:07:08;;;;;;;8.87;2.43;;;4.40;99.90;;;;;;5063397;28;20276;-49
2024/03/17 00:09:34;;;;;;;8.70;2.10;;;4.40;99.90;;;;;;5050432;28;21713;-50
2024/03/17 00:12:01;;;;;;;12.13;2.30;;;4.30;99.90;;;;;;5059605;28;20206;-49
2024/03/17 00:14:28;;;;;;;14.83;2.17;;;4.30;99.90;;;;;;5054037;28;20223;-51
2024/03/17 00:16:54;;;;;;;16.20;2.30;;;4.30;99.90;;;;;;5059972;28;20201;-48
2024/03/17 00:19:22;;;;;;;16.87;1.80;;;4.30;99.90;;;;;;5039019;28;20233;-50
2024/03/17 00:21:50;;;;;;;10.43;2.53;;;4.30;99.90;;;;;;5031724;28;20573;-52
2024/03/17 00:24:19;;;;;;;13.33;2.30;;;4.20;99.90;;;;;;5057815;28;20237;-51
2024/03/17 00:26:46;;;;;;;7.23;1.77;;;4.20;99.90;;;;;;5052744;28;20209;-48
2024/03/17 00:29:12;;;;;;;12.97;2.33;;;4.20;99.90;;;;;;5059196;28;20249;-51
2024/03/17 00:31:39;;;;;;;11.90;2.80;;;4.10;99.90;;;;;;5061560;28;20201;-49
2024/03/17 00:34:05;;;;;;;8.63;2.37;;;4.10;99.90;;;;;;5061328;28;20268;-54
2024/03/17 00:36:32;;;;;;;16.90;1.97;;;4.10;99.90;;;;;;5032727;28;20206;-48
2024/03/17 00:39:00;;;;;;;13.03;2.20;;;4.10;99.90;;;;;;5063293;28;20207;-52
2024/03/17 00:41:28;;;;;;;8.53;2.40;;;4.10;99.90;;;;;;5050162;28;20205;-49
2024/03/17 00:43:54;;;;;;;10.33;1.93;;;4.10;99.90;;;;;;5062620;28;20719;-52
2024/03/17 00:46:22;;;;;;;7.73;2.10;;;4.20;99.90;;;;;;5058805;28;20191;-50
2024/03/17 00:48:48;;;;;;;7.97;1.83;;;4.20;99.90;;;;;;5062540;28;20229;-52
2024/03/17 00:51:15;;;;;;;10.27;2.33;;;4.30;99.90;;;;;;5029296;28;20229;-52
2024/03/17 00:53:41;;;;;;;13.13;2.50;;;4.30;99.90;;;;;;5059705;28;20237;-50
2024/03/17 00:56:08;;;;;;;7.57;1.73;;;4.30;99.90;;;;;;5055611;28;20190;-52
2024/03/17 00:58:35;;;;;;;11.00;2.67;;;4.40;99.90;;;;;;5056982;28;20264;-48
2024/03/17 01:01:03;;;;;;;10.63;2.00;;;4.40;99.90;;;;;;5061259;28;20202;-52
2024/03/17 01:03:29;;;;;;;8.47;1.90;;;4.40;99.90;;;;;;5060148;28;20263;-49
2024/03/17 01:05:56;;;;;;;13.17;2.17;;;4.50;99.90;;;;;;5062602;28;20191;-49
2024/03/17 01:08:22;;;;;;;11.40;2.37;;;4.50;99.90;;;;;;5031114;28;20387;-49
2024/03/17 01:10:50;;;;;;;11.27;2.40;;;4.50;99.90;;;;;;5061718;28;20607;-49
2024/03/17 01:13:17;;;;;;;11.37;2.30;;;4.50;99.90;;;;;;5048941;28;20230;-49
2024/03/17 01:15:45;;;;;;;12.27;1.80;;;4.50;99.90;;;;;;5061794;28;20214;-51
2024/03/17 01:18:11;;;;;;;10.83;2.20;;;4.50;99.90;;;;;;5060025;28;20200;-51
2024/03/17 01:20:39;;;;;;;12.70;2.33;;;4.50;99.90;;;;;;5060676;28;20209;-48
2024/03/17 01:23:05;;;;;;;9.97;2.00;;;4.50;99.90;;;;;;5047301;28;20785;-50
2024/03/17 01:25:36;;;;;;;13.37;1.97;;;4.50;99.90;;;;;;5044939;28;20237;-52
2024/03/17 01:28:01;;;;;;;13.20;2.50;;;4.50;99.90;;;;;;5052915;28;20254;-51
2024/03/17 01:30:28;;;;;;;7.63;2.20;;;4.50;99.90;;;;;;5058251;28;20309;-52
2024/03/17 01:32:56;;;;;;;9.80;1.93;;;4.50;99.90;;;;;;5061768;28;20205;-48
2024/03/17 01:35:23;;;;;;;10.73;2.17;;;4.50;99.90;;;;;;5058420;28;20287;-51
2024/03/17 01:37:49;;;;;;;16.13;2.40;;;4.50;99.90;;;;;;5061369;28;20193;-49
2024/03/17 01:40:15;;;;;;;11.80;2.73;;;4.50;99.90;;;;;;5024214;28;20257;-52
2024/03/17 01:42:42;;;;;;;14.37;2.50;;;4.50;99.90;;;;;;5050262;28;20202;-49
2024/03/17 01:45:27;;;;;;;11.50;2.57;;;4.50;99.90;;;;;;5054658;28;20657;-51
2024/03/17 01:47:57;;;;;;;15.27;2.90;;;4.40;99.90;;;;;;5054564;28;20715;-50
2024/03/17 01:50:25;;;;;;;11.70;2.47;;;4.40;99.90;;;;;;5050533;28;23594;-49
2024/03/17 01:52:54;;;;;;;10.70;2.20;;;4.40;99.90;;;;;;5061955;28;20281;-48
2024/03/17 01:55:21;;;;;;;10.97;2.03;;;4.40;99.90;;;;;;5027830;28;20191;-48
2024/03/17 01:57:50;;;;;;;15.87;2.63;;;4.40;99.90;;;;;;5060384;28;20282;-49
2024/03/17 02:00:16;;;;;;;8.67;1.90;;;4.40;99.90;;;;;;5048153;28;20254;-51
2024/03/17 02:02:43;;;;;;;12.07;1.83;;;4.30;99.90;;;;;;5061483;28;20194;-50
2024/03/17 02:05:10;;;;;;;11.57;3.27;;;4.30;99.90;;;;;;5059464;28;20237;-52
2024/03/17 02:07:37;;;;;;;11.13;2.13;;;4.30;99.90;;;;;;5058265;28;20195;-49
2024/03/17 02:10:05;;;;;;;11.30;2.27;;;4.30;99.90;;;;;;5048677;28;20222;-52
2024/03/17 02:12:32;;;;;;;13.50;2.30;;;4.40;99.90;;;;;;5045643;28;20195;-51
2024/03/17 02:14:59;;;;;;;13.13;1.90;;;4.30;99.90;;;;;;5050497;28;20233;-52
2024/03/17 02:17:27;;;;;;;14.27;2.43;;;4.30;99.90;;;;;;5058601;28;20278;-53
2024/03/17 02:19:53;;;;;;;12.93;2.00;;;4.30;99.90;;;;;;5061464;28;20198;-51
2024/03/17 02:22:21;;;;;;;9.77;2.30;;;4.30;99.90;;;;;;5056407;28;20182;-52
2024/03/17 02:24:47;;;;;;;12.83;2.43;;;4.30;99.90;;;;;;5061094;28;20296;-48
2024/03/17 02:27:14;;;;;;;11.23;2.33;;;4.30;99.90;;;;;;5034819;28;20277;-53
2024/03/17 02:29:41;;;;;;;15.63;2.63;;;4.30;99.90;;;;;;5054888;28;20206;-48
2024/03/17 02:32:08;;;;;;;13.80;2.53;;;4.30;99.90;;;;;;5062783;28;20191;-50
2024/03/17 02:34:34;;;;;;;15.00;2.37;;;4.20;99.90;;;;;;5063896;28;20276;-47
2024/03/17 02:37:02;;;;;;;10.47;1.90;;;4.30;99.90;;;;;;5063756;28;20201;-52
2024/03/17 02:39:36;;;;;;;11.87;2.13;;;4.20;99.90;;;;;;5062671;28;20321;-50
2024/03/17 02:42:04;;;;;;;11.33;2.30;;;4.20;99.90;;;;;;5038802;28;20616;-51
2024/03/17 02:44:31;;;;;;;7.30;1.60;;;4.10;99.90;;;;;;5062700;28;20728;-46
2024/03/17 02:46:58;;;;;;;9.83;1.90;;;4.10;99.90;;;;;;5057431;28;20195;-52
2024/03/17 02:49:26;;;;;;;8.77;1.97;;;4.10;99.90;;;;;;5062631;28;20221;-51
2024/03/17 02:51:54;;;;;;;8.20;1.60;;;4.00;99.90;;;;;;5064447;28;20209;-48
2024/03/17 02:54:21;;;;;;;13.63;2.30;;;3.90;99.90;;;;;;5061448;28;20954;-53
2024/03/17 02:56:49;;;;;;;13.03;2.00;;;3.80;99.90;;;;;;5064803;28;20732;-49
2024/03/17 02:59:16;;;;;;;8.20;2.43;;;3.80;99.90;;;;;;5036069;28;20199;-54
2024/03/17 03:01:43;;;;;;;9.03;2.50;;;3.80;99.90;;;;;;5056696;28;20264;-50
2024/03/17 03:04:09;;;;;;;15.03;2.20;;;3.70;99.90;;;;;;5062352;28;20705;-51
2024/03/17 03:06:36;;;;;;;12.07;2.00;;;3.60;99.90;;;;;;5063529;28;20260;-48
2024/03/17 03:09:05;;;;;;;10.67;1.83;;;3.60;99.90;;;;;;5064010;28;20219;-52
2024/03/17 03:11:32;;;;;;;6.37;2.00;;;3.60;99.90;;;;;;5061356;28;20293;-50
2024/03/17 03:14:00;;;;;;;13.03;2.10;;;3.50;99.90;;;;;;5040108;28;20654;-52
2024/03/17 03:16:27;;;;;;;10.50;2.27;;;3.50;99.90;;;;;;5052735;28;20214;-51
2024/03/17 03:18:54;;;;;;;11.27;1.60;;;3.50;99.90;;;;;;5065220;28;20203;-48
2024/03/17 03:21:21;;;;;;;6.53;1.93;;;3.50;99.90;;;;;;5060208;28;20349;-49
2024/03/17 03:23:49;;;;;;;11.43;2.23;;;3.40;99.90;;;;;;5064373;28;20237;-50
2024/03/17 03:26:16;;;;;;;9.57;2.50;;;3.40;99.90;;;;;;5061833;28;20726;-49
2024/03/17 03:28:42;;;;;;;9.10;2.03;;;3.40;99.90;;;;;;5039533;28;20256;-46
2024/03/17 03:31:14;;;;;;;7.67;2.00;;;3.40;99.90;;;;;;5061520;28;20736;-47
2024/03/17 03:33:41;;;;;;;9.73;2.00;;;3.40;99.90;;;;;;5054611;28;20627;-51
2024/03/17 03:36:10;;;;;;;10.87;1.70;;;3.30;99.90;;;;;;5060827;28;20234;-53
2024/03/17 03:38:37;;;;;;;8.50;1.77;;;3.20;99.90;;;;;;5062157;28;20199;-48
2024/03/17 03:41:09;;;;;;;12.83;2.10;;;3.10;99.90;;;;;;5059899;28;20191;-52
2024/03/17 03:43:36;;;;;;;10.30;1.77;;;3.10;99.90;;;;;;5062386;28;20310;-51
2024/03/17 03:46:03;;;;;;;11.83;1.87;;;3.00;99.90;;;;;;5038932;28;20207;-52
2024/03/17 03:48:31;;;;;;;9.23;2.33;;;3.00;99.90;;;;;;5053185;28;20316;-47
2024/03/17 03:50:58;;;;;;;11.93;2.00;;;3.00;99.90;;;;;;5063547;28;20243;-48
2024/03/17 03:53:26;;;;;;;4.37;1.70;;;3.00;99.90;;;;;;5058938;28;20210;-51
2024/03/17 03:55:53;;;;;;;6.07;1.80;;;3.00;99.90;;;;;;5059409;28;20260;-49
2024/03/17 03:58:20;;;;;;;8.43;1.80;;;3.00;99.90;;;;;;5059177;28;20194;-48
2024/03/17 04:00:47;;;;;;;10.10;2.73;;;2.90;99.90;;;;;;5039429;28;20677;-47
2024/03/17 04:03:14;;;;;;;8.83;2.03;;;2.90;99.90;;;;;;5051235;28;20234;-51
2024/03/17 04:05:42;;;;;;;7.13;2.07;;;2.90;99.90;;;;;;5055565;28;20746;-49
2024/03/17 04:08:09;;;;;;;7.67;2.33;;;2.90;99.90;;;;;;5059223;28;20395;-50
2024/03/17 04:10:36;;;;;;;5.63;1.67;;;2.90;99.90;;;;;;5062025;28;20317;-48
2024/03/17 04:13:03;;;;;;;5.83;1.90;;;3.00;99.90;;;;;;5059530;28;20218;-52
2024/03/17 04:15:30;;;;;;;11.50;2.20;;;3.00;99.90;;;;;;5038172;28;20817;-49
2024/03/17 04:17:57;;;;;;;7.23;2.23;;;3.10;99.90;;;;;;5060740;28;20194;-50
2024/03/17 04:20:24;;;;;;;7.87;2.13;;;3.20;99.90;;;;;;5054461;28;20205;-48
2024/03/17 04:22:52;;;;;;;5.13;1.57;;;3.20;99.90;;;;;;5062550;28;20198;-51
2024/03/17 04:25:19;;;;;;;7.57;1.97;;;3.20;99.90;;;;;;5061649;28;20187;-47
2024/03/17 04:27:46;;;;;;;10.57;2.30;;;3.20;99.90;;;;;;5063484;28;20198;-51
2024/03/17 04:30:14;;;;;;;5.73;1.90;;;3.30;99.90;;;;;;5060135;28;20222;-48
2024/03/17 04:32:40;;;;;;;7.03;2.17;;;3.20;99.90;;;;;;5038208;28;20207;-49
2024/03/17 04:35:08;;;;;;;5.63;1.93;;;3.20;99.90;;;;;;5051372;28;20300;-47
2024/03/17 04:37:38;;;;;;;7.57;1.90;;;3.20;99.90;;;;;;5062167;28;20252;-48
2024/03/17 04:40:10;;;;;;;14.77;2.83;;;3.20;99.90;;;;;;5056276;28;20298;-49
2024/03/17 04:42:38;;;;;;;14.07;2.93;;;3.20;99.90;;;;;;5062546;28;20260;-51
2024/03/17 04:45:09;;;;;;;10.77;2.77;;;3.20;99.90;;;;;;5058717;28;20936;-50
2024/03/17 04:47:37;;;;;;;6.23;2.10;;;3.30;99.90;;;;;;5034959;28;20269;-49
2024/03/17 04:50:05;;;;;;;10.70;2.20;;;3.30;99.90;;;;;;5050696;28;20270;-52
2024/03/17 04:52:31;;;;;;;13.93;2.93;;;3.30;99.90;;;;;;5061564;28;20222;-53
2024/03/17 04:54:57;;;;;;;12.40;2.93;;;3.40;99.90;;;;;;5060195;28;20294;-49
2024/03/17 04:57:26;;;;;;;13.70;2.53;;;3.40;99.90;;;;;;5060520;28;20715;-50
2024/03/17 04:59:53;;;;;;;15.30;2.83;;;3.40;99.90;;;;;;5061140;28;20191;-50
2024/03/17 05:02:19;;;;;;;10.80;2.27;;;3.40;99.90;;;;;;5033217;28;20826;-53
2024/03/17 05:04:46;;;;;;;10.50;2.03;;;3.40;99.90;;;;;;5060854;28;20211;-48
2024/03/17 05:07:13;;;;;;;13.67;2.40;;;3.40;99.90;;;;;;5053878;28;20207;-51
2024/03/17 05:09:40;;;;;;;10.93;2.10;;;3.40;99.90;;;;;;5058730;28;20524;-49
2024/03/17 05:12:07;;;;;;;12.47;2.97;;;3.40;99.90;;;;;;5061804;28;20256;-51
2024/03/17 05:14:35;;;;;;;11.43;2.20;;;3.40;99.90;;;;;;5058497;28;20210;-48
2024/03/17 05:17:03;;;;;;;11.47;2.40;;;3.40;99.90;;;;;;5034984;28;20225;-48
2024/03/17 05:19:30;;;;;;;7.60;2.53;;;3.40;99.90;;;;;;5058351;28;20203;-49
2024/03/17 05:21:57;;;;;;;12.67;2.50;;;3.40;99.90;;;;;;5051920;28;20260;-47
2024/03/17 05:24:24;;;;;;;13.10;2.47;;;3.40;99.90;;;;;;5060114;28;20688;-53
2024/03/17 05:26:51;;;;;;;14.00;2.27;;;3.30;99.90;;;;;;5062183;28;20263;-50
2024/03/17 05:29:18;;;;;;;12.33;2.23;;;3.20;99.90;;;;;;5061835;28;20252;-49
2024/03/17 05:31:47;;;;;;;7.53;2.30;;;3.20;99.90;;;;;;5034864;28;20236;-48
2024/03/17 05:34:13;;;;;;;12.93;2.73;;;3.10;99.90;;;;;;5061874;28;20232;-51
2024/03/17 05:36:40;;;;;;;9.37;2.20;;;3.10;99.90;;;;;;5059644;28;20195;-50
2024/03/17 05:39:06;;;;;;;9.60;2.60;;;3.00;99.90;;;;;;5054028;28;20209;-52
2024/03/17 05:41:33;;;;;;;6.23;1.87;;;3.00;99.90;;;;;;5058710;28;20206;-48
2024/03/17 05:44:03;;;;;;;8.13;2.13;;;3.00;99.90;;;;;;5061938;28;20211;-48
2024/03/17 05:46:30;;;;;;;8.07;2.33;;;3.00;99.90;;;;;;5033602;28;20199;-48
2024/03/17 05:48:59;;;;;;;10.57;2.13;;;2.90;99.90;;;;;;5061894;28;20650;-49
2024/03/17 05:51:27;;;;;;;12.40;2.37;;;2.90;99.90;;;;;;5055167;28;20222;-52
2024/03/17 05:53:56;;;;;;;14.17;2.83;;;2.90;99.90;;;;;;5051129;28;20226;-51
2024/03/17 05:56:23;;;;;;;4.57;2.13;;;2.90;99.90;;;;;;5052604;28;20860;-54
2024/03/17 05:58:50;;;;;;;11.50;2.17;;;2.90;99.90;;;;;;5060966;28;20195;-53
2024/03/17 06:01:19;;;;;;;12.27;2.77;;;2.80;99.90;;;;;;5049048;28;20195;-50
2024/03/17 06:03:46;;;;;;;11.23;2.40;;;2.90;99.90;;;;;;5041083;28;20226;-48
2024/03/17 06:06:15;;;;;;;9.13;2.23;;;2.80;99.90;;;;;;5063053;28;20202;-53
2024/03/17 06:08:41;;;;;;;10.57;2.13;;;2.90;99.90;;;;;;5051516;28;20210;-48
2024/03/17 06:11:08;;;;;;;13.23;3.53;;;2.90;99.90;;;;;;5057415;28;20708;-53
2024/03/17 06:13:36;;;;;;;9.93;2.00;;;2.80;99.90;;;;;;5062113;28;20343;-48
2024/03/17 06:16:04;;;;;;;7.67;2.13;;;2.90;99.90;;;;;;5066924;28;20626;-52
2024/03/17 06:18:32;;;;;;;9.53;2.40;;;2.90;99.90;;;;;;5035968;28;20257;-51
2024/03/17 06:20:59;;;;;;;13.53;2.30;;;2.80;99.90;;;;;;5066681;28;20183;-47
2024/03/17 06:23:28;;;;;;;7.77;2.30;;;2.80;99.90;;;;;;5048489;28;20222;-48
2024/03/17 06:25:56;;;;;;;12.90;2.73;;;2.90;99.90;;;;;;5065332;28;20981;-47
2024/03/17 06:28:23;;;;;;;8.97;2.27;;;2.90;99.90;;;;;;5055692;28;20286;-50
2024/03/17 06:30:59;;;;;;;10.30;2.80;;;2.90;99.90;;;;;;5065775;28;20274;-50
2024/03/17 06:33:26;;;;;;;11.83;2.77;;;2.90;99.90;;;;;;5052981;28;20222;-48
2024/03/17 06:35:53;;;;;;;6.20;1.90;;;3.00;99.90;;;;;;5032027;28;20207;-48
2024/03/17 06:38:20;;;;;;;11.27;2.70;;;3.00;99.90;;;;;;5048733;28;20208;-52
2024/03/17 06:40:52;;;;;;;7.53;3.63;;;3.10;99.90;;;;;;5051255;28;20301;-49
2024/03/17 06:43:19;;;;;;;4.93;3.03;;;3.20;99.90;;;;;;5049019;28;20221;-48
2024/03/17 06:45:55;;;;;;;10.57;2.67;;;3.30;99.90;;;;;;5049275;28;20210;-52
2024/03/17 06:48:22;;;;;;;10.07;3.30;;;3.40;99.90;;;;;;5060957;28;20562;-48
2024/03/17 06:50:49;;;;;;;8.90;3.13;;;3.50;99.90;;;;;;5033485;28;20226;-49
2024/03/17 06:53:17;;;;;;;19.70;3.50;;;3.50;99.90;;;;;;5058709;28;20321;-50
2024/03/17 06:55:46;;;;;;;6.30;3.13;;;3.60;99.90;;;;;;5039454;28;20684;-52
2024/03/17 06:58:14;;;;;;;11.40;3.00;;;3.70;99.90;;;;;;5052066;28;20202;-51
2024/03/17 07:00:43;;;;;;;11.73;3.77;;;3.80;99.90;;;;;;5055638;28;20216;-50
2024/03/17 07:03:10;;;;;;;12.47;3.40;;;3.80;99.90;;;;;;5056903;28;20242;-53
2024/03/17 07:05:37;;;;;;;11.53;3.40;;;3.90;99.90;;;;;;5032820;28;20203;-48
2024/03/17 07:08:05;;;;;;;18.07;3.67;;;4.00;99.90;;;;;;5064381;28;20244;-48
2024/03/17 07:10:32;;;;;;;6.63;2.73;;;4.00;99.90;;;;;;5038965;28;20297;-47
2024/03/17 07:12:59;;;;;;;6.20;3.00;;;4.10;99.90;;;;;;5056547;28;20335;-47
2024/03/17 07:15:27;;;;;;;9.77;2.53;;;4.20;99.90;;;;;;5050009;28;20486;-49
2024/03/17 07:17:54;;;;;;;6.80;3.10;;;4.30;99.90;;;;;;5050888;28;20194;-49
2024/03/17 07:20:21;;;;;;;11.60;3.20;;;4.30;99.90;;;;;;5059349;28;20256;-49
2024/03/17 07:22:50;;;;;;;7.23;2.70;;;4.40;99.90;;;;;;5026839;28;20218;-48
2024/03/17 07:25:17;;;;;;;8.87;2.70;;;4.50;99.90;;;;;;5045741;28;20953;-47
2024/03/17 07:27:44;;;;;;;6.57;2.90;;;4.50;99.90;;;;;;5047972;28;20199;-52
2024/03/17 07:30:12;;;;;;;12.27;3.03;;;4.70;99.90;;;;;;5054896;28;20883;-48
2024/03/17 07:32:41;;;;;;;12.97;3.30;;;4.70;99.90;;;;;;5065394;28;20198;-51
2024/03/17 07:35:08;;;;;;;11.30;2.30;;;4.80;99.90;;;;;;5059061;28;20190;-52
2024/03/17 07:37:35;;;;;;;12.57;2.30;;;4.90;99.90;;;;;;5035576;28;20198;-48
2024/03/17 07:40:06;;;;;;;9.37;2.90;;;5.00;99.90;;;;;;5038021;28;20199;-49
2024/03/17 07:42:33;;;;;;;9.10;2.30;;;5.00;99.90;;;;;;5057579;28;20255;-50
2024/03/17 07:45:00;;;;;;;9.10;3.00;;;5.10;99.90;;;;;;5051509;28;20222;-48
2024/03/17 07:47:35;;;;;;;14.77;2.43;;;5.20;99.90;;;;;;5063980;28;20598;-53
2024/03/17 07:50:05;;;;;;;8.60;2.40;;;5.30;99.90;;;;;;5060404;28;20197;-49
2024/03/17 07:52:32;;;;;;;13.17;2.60;;;5.30;99.90;;;;;;5033825;28;20202;-50
2024/03/17 07:54:59;;;;;;;13.93;2.37;;;5.50;99.90;;;;;;5050633;28;20223;-48
2024/03/17 07:57:26;;;;;;;7.47;2.20;;;5.60;99.90;;;;;;5055311;28;20207;-47
2024/03/17 07:59:53;;;;;;;9.63;1.73;;;5.60;99.90;;;;;;5047374;28;20199;-53
2024/03/17 08:02:20;;;;;;;7.70;1.70;;;5.70;99.90;;;;;;5059375;28;20199;-49
2024/03/17 08:04:47;;;;;;;6.43;1.67;;;5.70;99.90;;;;;;5050432;28;20582;-47
2024/03/17 08:07:15;;;;;;;10.27;2.10;;;5.80;99.90;;;;;;5063309;28;20199;-49
2024/03/17 08:09:42;;;;;;;6.80;1.50;;;5.90;99.90;;;;;;5020776;28;20320;-48
2024/03/17 08:12:09;;;;;;;7.97;1.67;;;6.00;99.90;;;;;;5054846;28;20269;-48
2024/03/17 08:14:36;;;;;;;7.90;2.03;;;6.10;99.90;;;;;;5051805;28;20735;-49
2024/03/17 08:17:03;;;;;;;8.77;1.43;;;6.10;99.90;;;;;;5054668;28;20199;-49
2024/03/17 08:19:30;;;;;;;8.63;1.90;;;6.20;99.90;;;;;;5059871;28;20203;-51
2024/03/17 08:21:57;;;;;;;6.13;1.73;;;6.30;99.90;;;;;;5050887;28;20214;-48
2024/03/17 08:24:25;;;;;;;9.13;2.00;;;6.40;99.90;;;;;;5032395;28;20214;-50
2024/03/17 08:26:52;;;;;;;8.20;1.80;;;6.40;99.90;;;;;;5055196;28;20256;-50
2024/03/17 08:29:19;;;;;;;10.37;1.87;;;6.60;99.90;;;;;;5045549;28;20289;-53
2024/03/17 08:31:46;;;;;;;5.83;1.33;;;6.60;99.90;;;;;;5039678;28;20992;-48
2024/03/17 08:34:13;;;;;;;6.67;1.40;;;6.70;99.90;;;;;;5055130;28;20225;-51
2024/03/17 08:36:40;;;;;;;8.67;1.63;;;6.70;99.90;;;;;;5051447;28;20259;-49
2024/03/17 08:39:09;;;;;;;9.50;1.67;;;6.70;99.90;;;;;;5037648;28;20302;-48
2024/03/17 08:41:37;;;;;;;6.03;1.40;;;6.80;99.90;;;;;;5051210;28;20625;-49
2024/03/17 08:44:05;;;;;;;6.67;1.30;;;6.80;99.90;;;;;;5055483;28;20276;-49
2024/03/17 08:46:33;;;;;;;14.70;1.50;;;6.80;99.90;;;;;;5050353;28;20272;-52
2024/03/17 08:48:59;;;;;;;8.40;1.23;;;6.90;99.90;;;;;;5056241;28;20214;-47
2024/03/17 08:51:27;;;;;;;5.93;0.97;;;7.00;99.90;;;;;;5055582;28;20218;-49
2024/03/17 08:53:54;;;;;;;6.77;1.27;;;7.00;99.90;;;;;;5034918;28;20237;-47
2024/03/17 08:56:22;;;;;;;4.43;1.43;;;6.90;99.90;;;;;;5063158;28;20186;-47
2024/03/17 08:58:51;;;;;;;10.63;1.93;;;6.90;99.90;;;;;;5045382;28;20230;-48
2024/03/17 09:01:19;;;;;;;9.90;1.63;;;6.90;99.90;;;;;;5055138;28;20222;-53
2024/03/17 09:03:49;;;;;;;9.50;2.20;;;7.00;99.90;;;;;;5050499;28;20858;-49
2024/03/17 09:06:18;;;;;;;10.53;1.87;;;7.10;99.90;;;;;;5052284;28;20274;-49
2024/03/17 09:08:45;;;;;;;8.23;1.70;;;7.10;99.90;;;;;;5039685;28;20212;-48
2024/03/17 09:11:14;;;;;;;11.20;2.23;;;7.00;99.90;;;;;;5033174;28;20242;-48
2024/03/17 09:13:41;;;;;;;8.93;2.20;;;7.00;99.90;;;;;;5050264;28;20301;-49
2024/03/17 09:16:11;;;;;;;7.83;1.77;;;7.10;99.90;;;;;;5047830;28;20206;-48
